Pointe-Claire, Canada
Current Conditions -  °F | °C
As of 4:00 PM on Tuesday 21 Oct 2014 (Local Time) from CYUL Reporting Station
Light Rain Light Rain  
Wind Chill: 37°   Ceiling: 5500
Heat Index: 45°   Visibility: 12mi
Dew Point: 39°   Wind: 17mph
Humidity: 81%   Direction: 30°NNE
Pressure: 30.06"   Gusts: NA
Location:  45.43°N, 73.75°W
Report Text: CYUL 212000Z 03015KT 12SM -RA FEW030 FEW045 OVC055 07/04 A3006 RMK SC1SC2SC6 SC TR SLP180
Loading
Personal Weather Stations






























Interactive Weather Map
Tropical Storm Tracking
New forecast layout! Learn more

10-Day Weather Forecast

Advertisements
Track Severe Weather on mobile